Time,TemperatureF,DewpointF,PressureIn,WindDirection,WindDirectionDegrees,WindSpeedMPH,WindSpeedGustMPH,Humidity,HourlyPrecipIn,Conditions,Clouds,dailyrainin,SoftwareType,DateUTC
2013-07-05 00:00:00,48.0,47.0,-100.00,North,-999,-999.0,-999.0,99,-99.99,,,0.00,,2013-07-05 07:00:00,
2013-07-05 01:00:00,47.0,47.0,-100.00,NE,56,0.0,2.0,99,-99.99,,,0.00,,2013-07-05 08:00:00,
2013-07-05 02:00:00,47.0,47.0,-100.00,NE,34,1.0,2.0,100,-99.99,,,-99.99,,2013-07-05 09:00:00,
2013-07-05 02:56:00,47.0,47.0,-100.00,NE,34,1.0,2.0,100,-99.99,,,-99.99,,2013-07-05 09:56:00,
2013-07-05 03:57:00,47.0,47.0,-100.00,North,352,1.0,2.0,100,-99.99,,,0.00,,2013-07-05 10:57:00,
2013-07-05 04:00:00,45.0,45.0,-100.00,NE,40,1.0,2.0,100,-99.99,,,0.01,,2013-07-05 11:00:00,
2013-07-05 06:00:00,45.0,45.0,-100.00,NE,36,1.0,2.0,100,-99.99,,,0.00,,2013-07-05 13:00:00,
2013-07-05 07:00:00,46.0,46.0,-100.00,ENE,64,1.0,4.0,100,-99.99,,,0.00,,2013-07-05 14:00:00,
2013-07-05 07:56:00,46.0,46.0,-100.00,ENE,64,1.0,4.0,100,-99.99,,,0.00,,2013-07-05 14:56:00,
2013-07-05 08:00:00,47.0,47.0,-100.00,NNE,29,2.0,3.0,99,-99.99,,,0.00,,2013-07-05 15:00:00,
2013-07-05 09:00:00,49.0,47.0,-100.00,NNE,28,2.0,4.0,91,-99.99,,,0.00,,2013-07-05 16:00:00,
2013-07-05 09:53:00,49.0,47.0,-100.00,NNE,28,2.0,4.0,91,-99.99,,,0.00,,2013-07-05 16:53:00,
2013-07-05 10:00:00,50.0,48.0,-100.00,North,6,2.0,4.0,92,-99.99,,,0.00,,2013-07-05 17:00:00,
2013-07-05 11:00:00,50.0,47.0,-100.00,NE,39,2.0,4.0,89,-99.99,,,0.00,,2013-07-05 18:00:00,
2013-07-05 11:53:00,50.0,47.0,-100.00,NE,39,2.0,4.0,89,-99.99,,,0.00,,2013-07-05 18:53:00,
2013-07-05 12:00:00,53.0,49.0,-100.00,NNE,19,2.0,5.0,88,-99.99,,,0.01,,2013-07-05 19:00:00,
2013-07-05 13:00:00,51.0,47.0,-100.00,NNE,14,3.0,4.0,85,-99.99,,,0.00,,2013-07-05 20:00:00,
2013-07-05 14:00:00,51.0,47.0,-100.00,ENE,62,2.0,5.0,87,-99.99,,,0.00,,2013-07-05 21:00:00,
2013-07-05 14:53:00,51.0,47.0,-100.00,ENE,62,2.0,5.0,87,-99.99,,,0.00,,2013-07-05 21:53:00,
2013-07-05 16:00:00,50.0,47.0,-100.00,North,349,1.0,3.0,90,-99.99,,,0.00,,2013-07-05 23:00:00,
2013-07-05 16:43:00,50.0,47.0,-100.00,North,349,1.0,3.0,90,-99.99,,,0.00,,2013-07-05 23:43:00,
2013-07-05 16:53:00,50.0,47.0,-100.00,North,349,1.0,3.0,90,-99.99,,,0.00,,2013-07-05 23:53:00,
2013-07-05 18:00:00,53.0,49.0,-100.00,North,10,1.0,3.0,87,-99.99,,,0.00,,2013-07-06 01:00:00,
2013-07-05 19:00:00,52.0,-99.9,-100.00,North,-999,-999.0,-999.0,-999,-99.99,,,-99.99,,2013-07-06 02:00:00,
2013-07-05 19:53:00,52.0,-99.9,-100.00,North,-999,-999.0,-999.0,-999,-99.99,,,-99.99,,2013-07-06 02:53:00,
2013-07-05 20:00:00,50.0,47.0,-100.00,NE,38,1.0,3.0,90,-99.99,,,-99.99,,2013-07-06 03:00:00,
2013-07-05 21:00:00,49.0,45.0,-100.00,North,-999,-999.0,-999.0,87,-99.99,,,-99.99,,2013-07-06 04:00:00,
2013-07-05 21:53:00,49.0,45.0,-100.00,North,-999,-999.0,-999.0,87,-99.99,,,-99.99,,2013-07-06 04:53:00,
2013-07-05 22:00:00,46.0,44.0,-100.00,NNW,348,1.0,2.0,93,-99.99,,,0.00,,2013-07-06 05:00:00,
2013-07-05 22:53:00,46.0,44.0,-100.00,NNW,348,1.0,2.0,93,-99.99,,,0.00,,2013-07-06 05:53:00,
2013-07-05 23:00:00,45.0,44.0,-100.00,NNE,17,0.0,1.0,97,-99.99,,,0.00,,2013-07-06 06:00:00,
2013-07-05 23:53:00,45.0,44.0,-100.00,NNE,17,0.0,1.0,97,-99.99,,,0.00,,2013-07-06 06:53:00,